createdAt,value
2018-06-08T00:02:05.010Z,25.20
2018-06-08T00:04:33.103Z,25.20
2018-06-08T00:07:01.229Z,25.10
2018-06-08T00:09:29.327Z,25.10
2018-06-08T00:11:57.450Z,25.10
2018-06-08T00:14:25.556Z,25.10
2018-06-08T00:16:53.687Z,25.00
2018-06-08T00:19:21.812Z,25.00
2018-06-08T00:21:49.969Z,25.00
2018-06-08T00:24:18.076Z,24.90
2018-06-08T00:26:46.224Z,24.90
2018-06-08T00:29:14.349Z,24.90
2018-06-08T00:34:10.445Z,24.80
2018-06-08T00:39:08.756Z,24.80
2018-06-08T00:41:36.916Z,24.80
2018-06-08T00:44:05.129Z,24.70
2018-06-08T00:46:33.365Z,24.70
2018-06-08T00:49:01.504Z,24.60
2018-06-08T00:51:29.637Z,24.60
2018-06-08T00:53:57.753Z,24.50
2018-06-08T00:56:37.489Z,24.50
2018-06-08T00:59:05.717Z,24.50
2018-06-08T01:01:33.832Z,24.40
2018-06-08T01:04:01.945Z,24.40
2018-06-08T01:06:30.073Z,24.30
2018-06-08T01:08:58.195Z,24.30
2018-06-08T01:11:26.294Z,24.30
2018-06-08T01:13:54.432Z,24.30
2018-06-08T01:18:50.533Z,24.20
2018-06-08T01:26:14.459Z,24.10
2018-06-08T01:28:42.561Z,24.10
2018-06-08T01:31:10.659Z,24.00
2018-06-08T01:33:38.761Z,24.00
2018-06-08T01:36:06.877Z,24.00
2018-06-08T01:38:34.989Z,24.00
2018-06-08T01:41:03.112Z,23.90
2018-06-08T01:43:31.221Z,23.90
2018-06-08T01:45:59.326Z,23.90
2018-06-08T01:48:27.441Z,23.80
2018-06-08T01:50:55.564Z,23.80
2018-06-08T01:53:23.672Z,23.80
2018-06-08T01:55:51.832Z,23.80
2018-06-08T01:58:19.948Z,23.80
2018-06-08T02:00:48.052Z,23.70
2018-06-08T02:03:16.187Z,23.70
2018-06-08T02:05:44.333Z,23.70
2018-06-08T02:08:12.452Z,23.60
2018-06-08T02:10:40.563Z,23.60
2018-06-08T02:15:36.530Z,23.50
2018-06-08T02:18:04.635Z,23.50
2018-06-08T02:20:32.748Z,23.50
2018-06-08T02:25:28.720Z,23.50
2018-06-08T02:27:56.807Z,23.40
2018-06-08T02:30:24.896Z,23.40
2018-06-08T02:32:53.008Z,23.40
2018-06-08T02:35:21.109Z,23.30
2018-06-08T02:37:49.221Z,23.30
2018-06-08T02:40:17.303Z,23.20
2018-06-08T02:42:45.403Z,23.20
2018-06-08T02:45:13.526Z,23.10
2018-06-08T02:52:37.404Z,23.00
2018-06-08T02:55:05.533Z,22.90
2018-06-08T02:57:33.636Z,22.90
2018-06-08T03:00:01.723Z,22.80
2018-06-08T03:02:29.832Z,22.80
2018-06-08T03:04:57.924Z,22.80
2018-06-08T03:07:26.019Z,22.80
2018-06-08T03:09:54.100Z,22.80
2018-06-08T03:12:22.217Z,22.70
2018-06-08T03:14:50.331Z,22.70
2018-06-08T03:17:18.507Z,22.60
2018-06-08T03:19:46.620Z,22.60
2018-06-08T03:22:14.712Z,22.60
2018-06-08T03:24:42.808Z,22.60
2018-06-08T03:27:10.892Z,22.60
2018-06-08T03:29:39.005Z,22.60
2018-06-08T03:32:07.101Z,22.60
2018-06-08T03:34:35.196Z,22.50
2018-06-08T03:37:03.303Z,22.50
2018-06-08T03:39:31.395Z,22.40
2018-06-08T03:41:59.463Z,22.40
2018-06-08T03:44:27.592Z,22.40
2018-06-08T03:46:55.695Z,22.30
2018-06-08T03:49:23.790Z,22.30
2018-06-08T03:51:51.904Z,22.30
2018-06-08T03:54:20.017Z,22.20
2018-06-08T03:56:48.808Z,22.20
2018-06-08T03:59:18.045Z,22.20
2018-06-08T04:01:46.155Z,22.20
2018-06-08T04:04:14.260Z,22.20
2018-06-08T04:09:10.332Z,22.20
2018-06-08T04:11:38.424Z,22.20
2018-06-08T04:14:06.500Z,22.20
2018-06-08T04:16:34.691Z,22.30
2018-06-08T04:19:02.815Z,22.30
2018-06-08T04:21:30.926Z,22.30
2018-06-08T04:23:59.026Z,22.30
2018-06-08T04:26:27.120Z,22.30
2018-06-08T04:28:55.179Z,22.30
2018-06-08T04:31:23.271Z,22.40
2018-06-08T04:33:51.376Z,22.40
2018-06-08T04:36:25.960Z,22.40
2018-06-08T04:38:54.032Z,22.50
2018-06-08T04:41:22.136Z,22.50
2018-06-08T04:43:50.220Z,22.50
2018-06-08T04:46:18.316Z,22.50
2018-06-08T04:48:46.407Z,22.60
2018-06-08T04:51:14.515Z,22.60
2018-06-08T04:53:42.759Z,22.70
2018-06-08T04:58:38.808Z,22.80
2018-06-08T05:01:07.237Z,22.90
2018-06-08T05:03:35.360Z,22.90
2018-06-08T05:08:31.404Z,23.00
2018-06-08T05:10:59.499Z,23.10
2018-06-08T05:13:27.588Z,23.20
2018-06-08T05:15:55.679Z,23.20
2018-06-08T05:18:23.795Z,23.30
2018-06-08T05:20:51.917Z,23.30
2018-06-08T05:23:20.066Z,23.40
2018-06-08T05:25:48.159Z,23.50
2018-06-08T05:28:16.380Z,23.60
2018-06-08T05:30:44.468Z,23.60
2018-06-08T05:33:12.572Z,23.70
2018-06-08T05:35:40.704Z,23.80
2018-06-08T05:38:08.783Z,23.80
2018-06-08T05:40:36.900Z,24.00
2018-06-08T05:43:05.009Z,24.00
2018-06-08T05:45:33.112Z,24.10
2018-06-08T05:48:01.200Z,24.20
2018-06-08T05:50:29.308Z,24.30
2018-06-08T05:52:57.439Z,24.30
2018-06-08T05:55:25.561Z,24.40
2018-06-08T05:57:53.680Z,24.40
2018-06-08T06:00:21.832Z,24.50
2018-06-08T06:02:49.907Z,24.60
2018-06-08T06:05:17.979Z,24.70
2018-06-08T06:07:46.104Z,24.80
2018-06-08T06:10:14.214Z,24.90
2018-06-08T06:12:42.324Z,24.90
2018-06-08T06:15:10.452Z,24.90
2018-06-08T06:17:38.540Z,24.90
2018-06-08T06:20:07.469Z,25.00
2018-06-08T06:22:35.792Z,25.10
2018-06-08T06:25:04.835Z,25.20
2018-06-08T06:27:32.929Z,25.20
2018-06-08T06:32:28.972Z,25.20
2018-06-08T06:34:57.047Z,25.20
2018-06-08T06:37:25.159Z,25.20
2018-06-08T06:39:53.235Z,25.30
2018-06-08T06:42:21.366Z,25.40
2018-06-08T06:44:49.510Z,25.40
2018-06-08T06:47:17.579Z,25.50
2018-06-08T06:52:13.535Z,25.60
2018-06-08T06:54:41.633Z,25.70
2018-06-08T06:57:09.723Z,25.80
2018-06-08T06:59:37.844Z,25.90
2018-06-08T07:02:05.977Z,26.00
2018-06-08T07:04:34.072Z,26.00
2018-06-08T07:07:02.168Z,26.20
2018-06-08T07:09:30.284Z,26.40
2018-06-08T07:11:58.391Z,26.60
2018-06-08T07:14:26.504Z,26.80
2018-06-08T07:16:54.592Z,27.00
2018-06-08T07:19:29.471Z,27.20
2018-06-08T07:21:57.572Z,27.40
2018-06-08T07:24:25.642Z,27.50
2018-06-08T07:26:53.727Z,27.60
2018-06-08T07:29:21.820Z,27.80
2018-06-08T07:31:49.977Z,27.90
2018-06-08T07:34:18.011Z,27.90
2018-06-08T07:36:46.108Z,28.00
2018-06-08T07:39:14.192Z,28.00
2018-06-08T07:41:42.308Z,28.10
2018-06-08T07:44:10.400Z,28.20
2018-06-08T07:46:38.480Z,28.40
2018-06-08T07:49:06.577Z,28.50
2018-06-08T07:51:34.699Z,28.70
2018-06-08T07:54:02.814Z,28.80
2018-06-08T07:56:30.921Z,28.90
2018-06-08T07:58:59.059Z,29.10
2018-06-08T08:01:27.192Z,29.20
2018-06-08T08:03:55.268Z,29.30
2018-06-08T08:06:23.397Z,29.40
2018-06-08T08:08:51.513Z,29.60
2018-06-08T08:11:19.617Z,29.70
2018-06-08T08:13:47.716Z,29.80
2018-06-08T08:16:15.785Z,29.90
2018-06-08T08:18:43.988Z,29.90
2018-06-08T08:21:12.085Z,29.90
2018-06-08T08:23:40.188Z,29.90
2018-06-08T08:26:08.279Z,30.00
2018-06-08T08:28:36.372Z,30.10
2018-06-08T08:31:04.468Z,30.10
2018-06-08T08:33:32.571Z,30.20
2018-06-08T08:36:00.660Z,30.40
2018-06-08T08:38:28.779Z,30.50
2018-06-08T08:40:56.894Z,30.70
2018-06-08T08:43:24.979Z,30.90
2018-06-08T08:45:53.102Z,31.10
2018-06-08T08:48:21.220Z,31.20
2018-06-08T08:50:49.355Z,31.40
2018-06-08T08:53:17.456Z,31.50
2018-06-08T08:55:45.543Z,31.60
2018-06-08T08:58:13.646Z,31.70
2018-06-08T09:00:41.747Z,31.80
2018-06-08T09:03:09.840Z,31.90
2018-06-08T09:05:37.924Z,31.90
2018-06-08T09:08:06.050Z,32.00
2018-06-08T09:10:34.143Z,32.00
2018-06-08T09:13:02.248Z,32.10
2018-06-08T09:15:30.374Z,32.10
2018-06-08T09:20:26.377Z,32.00
2018-06-08T09:22:54.500Z,32.00
2018-06-08T09:25:22.647Z,32.00
2018-06-08T09:27:50.786Z,32.10
2018-06-08T09:30:18.864Z,32.30
2018-06-08T09:32:46.996Z,32.50
2018-06-08T09:35:15.095Z,32.70
2018-06-08T09:37:43.216Z,32.90
2018-06-08T09:40:11.310Z,33.10
2018-06-08T09:42:39.428Z,33.30
2018-06-08T09:45:07.600Z,33.30
2018-06-08T09:47:35.696Z,33.40
2018-06-08T09:50:03.800Z,33.50
2018-06-08T09:52:31.879Z,33.70
2018-06-08T09:54:59.972Z,33.90
2018-06-08T09:57:28.054Z,34.00
2018-06-08T09:59:56.148Z,34.20
2018-06-08T10:02:24.259Z,34.30
2018-06-08T10:04:52.372Z,34.30
2018-06-08T10:07:20.491Z,34.40
2018-06-08T10:09:48.592Z,34.40
2018-06-08T10:12:16.675Z,34.50
2018-06-08T10:14:44.774Z,34.60
2018-06-08T10:17:12.884Z,34.70
2018-06-08T10:19:40.962Z,34.90
2018-06-08T10:22:09.067Z,35.00
2018-06-08T10:24:37.242Z,35.10
2018-06-08T10:27:05.349Z,35.30
2018-06-08T10:29:33.418Z,35.50
2018-06-08T10:32:01.519Z,35.60
2018-06-08T10:34:29.630Z,35.80
2018-06-08T10:36:57.799Z,35.90
2018-06-08T10:39:25.903Z,36.00
2018-06-08T10:41:53.979Z,36.00
2018-06-08T10:46:49.962Z,35.90
2018-06-08T10:49:18.036Z,35.90
2018-06-08T10:54:13.978Z,36.00
2018-06-08T10:56:42.089Z,36.10
2018-06-08T10:59:10.171Z,36.10
2018-06-08T11:01:38.295Z,36.20
2018-06-08T11:04:06.384Z,36.20
2018-06-08T11:06:34.484Z,36.40
2018-06-08T11:09:02.650Z,36.60
2018-06-08T11:11:30.753Z,36.80
2018-06-08T11:13:58.843Z,36.90
2018-06-08T11:16:26.936Z,37.00
2018-06-08T11:18:55.038Z,37.10
2018-06-08T11:21:23.106Z,37.10
2018-06-08T11:23:51.241Z,37.10
2018-06-08T11:26:19.336Z,37.10
2018-06-08T11:28:47.548Z,37.20
2018-06-08T11:31:15.620Z,37.30
2018-06-08T11:33:43.717Z,37.30
2018-06-08T11:36:11.829Z,37.40
2018-06-08T11:38:39.908Z,37.50
2018-06-08T11:43:35.906Z,37.60
2018-06-08T11:46:04.315Z,37.50
2018-06-08T11:48:32.395Z,37.60
2018-06-08T11:51:00.492Z,37.60
2018-06-08T11:55:56.463Z,37.70
2018-06-08T11:58:24.568Z,37.70
2018-06-08T12:00:52.692Z,37.70
2018-06-08T12:03:20.803Z,37.70
2018-06-08T12:05:48.879Z,37.80
2018-06-08T12:08:16.955Z,37.80
2018-06-08T12:10:45.072Z,37.90
2018-06-08T12:13:13.183Z,37.90
2018-06-08T12:15:41.279Z,37.90
2018-06-08T12:18:09.406Z,37.90
2018-06-08T12:20:37.604Z,37.90
2018-06-08T12:23:05.731Z,38.00
2018-06-08T12:25:33.859Z,38.00
2018-06-08T12:28:01.959Z,38.00
2018-06-08T12:32:57.980Z,38.10
2018-06-08T12:35:26.073Z,38.10
2018-06-08T12:37:54.173Z,38.20
2018-06-08T12:40:22.292Z,38.20
2018-06-08T12:42:50.390Z,38.30
2018-06-08T12:45:18.497Z,38.40
2018-06-08T12:47:46.615Z,38.50
2018-06-08T12:50:14.687Z,38.50
2018-06-08T12:52:42.797Z,38.60
2018-06-08T12:55:10.892Z,38.60
2018-06-08T12:57:39.018Z,38.70
2018-06-08T13:00:07.130Z,38.80
2018-06-08T13:02:35.232Z,38.90
2018-06-08T13:05:03.348Z,38.90
2018-06-08T13:07:31.424Z,39.00
2018-06-08T13:09:59.512Z,39.00
2018-06-08T13:12:27.597Z,39.10
2018-06-08T13:14:55.683Z,39.10
2018-06-08T13:19:51.691Z,39.10
2018-06-08T13:22:19.811Z,39.20
2018-06-08T13:24:47.895Z,39.20
2018-06-08T13:27:16.019Z,39.20
2018-06-08T13:29:44.083Z,39.20
2018-06-08T13:32:12.196Z,39.20
2018-06-08T13:34:40.298Z,39.20
2018-06-08T13:37:08.399Z,39.20
2018-06-08T13:39:36.623Z,39.30
2018-06-08T13:42:04.684Z,39.20
2018-06-08T13:44:32.803Z,39.10
2018-06-08T13:47:00.890Z,39.20
2018-06-08T13:49:29.000Z,39.20
2018-06-08T13:51:57.092Z,39.20
2018-06-08T13:54:25.283Z,39.30
2018-06-08T13:56:53.484Z,39.30
2018-06-08T13:59:21.652Z,39.30
2018-06-08T14:01:49.904Z,39.40
2018-06-08T14:04:18.035Z,39.40
2018-06-08T14:06:46.200Z,39.40
2018-06-08T14:09:14.299Z,39.40
2018-06-08T14:11:42.387Z,39.40
2018-06-08T14:14:10.500Z,39.50
2018-06-08T14:16:38.641Z,39.40
2018-06-08T14:19:06.889Z,39.30
2018-06-08T14:21:34.983Z,39.30
2018-06-08T14:24:03.088Z,39.30
2018-06-08T14:26:31.188Z,39.30
2018-06-08T14:28:59.287Z,39.30
2018-06-08T14:31:27.388Z,39.20
2018-06-08T14:33:55.507Z,39.20
2018-06-08T14:36:23.621Z,39.10
2018-06-08T14:38:51.708Z,39.00
2018-06-08T14:41:19.799Z,38.90
2018-06-08T14:43:47.932Z,38.80
2018-06-08T14:46:16.032Z,38.70
2018-06-08T14:48:44.144Z,38.50
2018-06-08T14:51:12.267Z,38.40
2018-06-08T14:53:40.394Z,38.20
2018-06-08T14:58:36.349Z,37.80
2018-06-08T15:01:04.439Z,37.70
2018-06-08T15:03:32.503Z,37.50
2018-06-08T15:06:00.600Z,37.40
2018-06-08T15:08:28.687Z,37.30
2018-06-08T15:10:56.880Z,37.20
2018-06-08T15:13:24.982Z,37.00
2018-06-08T15:15:53.076Z,36.90
2018-06-08T15:20:49.063Z,36.70
2018-06-08T15:23:17.180Z,36.60
2018-06-08T15:25:45.268Z,36.50
2018-06-08T15:28:13.364Z,36.30
2018-06-08T15:30:41.456Z,36.30
2018-06-08T15:33:09.568Z,36.20
2018-06-08T15:35:37.675Z,36.10
2018-06-08T15:38:05.766Z,36.00
2018-06-08T15:40:33.930Z,35.90
2018-06-08T15:43:01.963Z,35.80
2018-06-08T15:45:30.036Z,35.80
2018-06-08T15:47:58.120Z,35.70
2018-06-08T15:50:26.201Z,35.60
2018-06-08T15:52:54.283Z,35.60
2018-06-08T15:55:22.376Z,35.50
2018-06-08T15:57:50.475Z,35.40
2018-06-08T16:00:18.609Z,35.30
2018-06-08T16:02:46.720Z,35.20
2018-06-08T16:05:14.804Z,35.10
2018-06-08T16:07:42.908Z,35.00
2018-06-08T16:10:10.999Z,35.00
2018-06-08T16:12:39.094Z,34.90
2018-06-08T16:15:07.186Z,34.80
2018-06-08T16:17:35.295Z,34.70
2018-06-08T16:20:03.420Z,34.60
2018-06-08T16:22:31.552Z,34.60
2018-06-08T16:24:59.615Z,34.50
2018-06-08T16:27:27.799Z,34.40
2018-06-08T16:29:55.899Z,34.40
2018-06-08T16:32:23.987Z,34.40
2018-06-08T16:34:52.103Z,34.30
2018-06-08T16:37:20.204Z,34.20
2018-06-08T16:39:48.283Z,34.10
2018-06-08T16:42:16.373Z,34.10
2018-06-08T16:44:44.477Z,34.00
2018-06-08T16:47:12.663Z,34.00
2018-06-08T16:49:40.768Z,33.90
2018-06-08T16:52:08.909Z,33.90
2018-06-08T16:54:37.006Z,33.90
2018-06-08T16:57:05.194Z,33.80
2018-06-08T16:59:33.280Z,33.80
2018-06-08T17:02:01.911Z,33.70
2018-06-08T17:04:30.110Z,33.70
2018-06-08T17:06:58.287Z,33.60
2018-06-08T17:09:26.404Z,33.60
2018-06-08T17:11:54.519Z,33.60
2018-06-08T17:14:22.598Z,33.50
2018-06-08T17:16:50.724Z,33.40
2018-06-08T17:19:18.855Z,33.40
2018-06-08T17:21:46.939Z,33.30
2018-06-08T17:24:15.024Z,33.20
2018-06-08T17:26:43.150Z,33.10
2018-06-08T17:29:11.275Z,33.00
2018-06-08T17:31:39.380Z,32.90
2018-06-08T17:34:07.501Z,32.80
2018-06-08T17:36:35.596Z,32.70
2018-06-08T17:39:05.683Z,32.60
2018-06-08T17:41:33.788Z,32.50
2018-06-08T17:44:01.909Z,32.50
2018-06-08T17:46:30.005Z,32.40
2018-06-08T17:48:58.114Z,32.40
2018-06-08T17:51:26.201Z,32.30
2018-06-08T17:53:54.300Z,32.20
2018-06-08T17:56:22.386Z,32.20
2018-06-08T17:58:50.505Z,32.20
2018-06-08T18:01:18.576Z,32.10
2018-06-08T18:03:46.674Z,32.10
2018-06-08T18:06:14.838Z,32.00
2018-06-08T18:08:42.923Z,32.00
2018-06-08T18:11:11.010Z,31.90
2018-06-08T18:13:39.104Z,31.90
2018-06-08T18:16:07.203Z,31.90
2018-06-08T18:18:35.349Z,31.90
2018-06-08T18:21:03.452Z,31.90
2018-06-08T18:23:31.690Z,31.90
2018-06-08T18:25:59.742Z,31.90
2018-06-08T18:28:27.857Z,31.80
2018-06-08T18:30:55.931Z,31.80
2018-06-08T18:33:24.172Z,31.70
2018-06-08T18:35:52.311Z,31.70
2018-06-08T18:38:20.432Z,31.70
2018-06-08T18:40:48.528Z,31.70
2018-06-08T18:43:16.665Z,31.60
2018-06-08T18:45:44.792Z,31.50
2018-06-08T18:48:12.912Z,31.50
2018-06-08T18:50:41.016Z,31.40
2018-06-08T18:53:09.133Z,31.40
2018-06-08T18:55:37.203Z,31.40
2018-06-08T18:58:05.311Z,31.20
2018-06-08T19:00:33.417Z,31.10
2018-06-08T19:03:01.556Z,30.90
2018-06-08T19:05:29.642Z,30.70
2018-06-08T19:07:57.770Z,30.60
2018-06-08T19:10:25.956Z,30.40
2018-06-08T19:12:55.142Z,30.40
2018-06-08T19:15:23.228Z,30.30
2018-06-08T19:17:51.327Z,30.30
2018-06-08T19:20:19.436Z,30.30
2018-06-08T19:22:47.527Z,30.40
2018-06-08T19:25:15.632Z,30.40
2018-06-08T19:30:11.613Z,30.30
2018-06-08T19:32:39.719Z,30.30
2018-06-08T19:35:07.787Z,30.30
2018-06-08T19:37:35.892Z,30.30
2018-06-08T19:40:04.072Z,30.30
2018-06-08T19:42:32.172Z,30.20
2018-06-08T19:45:00.295Z,30.10
2018-06-08T19:47:28.411Z,30.10
2018-06-08T19:49:56.580Z,30.10
2018-06-08T19:52:24.708Z,29.90
2018-06-08T19:54:52.820Z,29.90
2018-06-08T19:57:21.951Z,29.80
2018-06-08T19:59:50.028Z,29.80
2018-06-08T20:02:18.121Z,29.70
2018-06-08T20:04:46.221Z,29.70
2018-06-08T20:07:14.313Z,29.70
2018-06-08T20:09:42.407Z,29.70
2018-06-08T20:12:10.512Z,29.60
2018-06-08T20:14:38.630Z,29.60
2018-06-08T20:17:07.327Z,29.60
2018-06-08T20:19:35.445Z,29.60
2018-06-08T20:22:03.568Z,29.60
2018-06-08T20:26:59.596Z,29.50
2018-06-08T20:29:27.674Z,29.40
2018-06-08T20:31:55.784Z,29.40
2018-06-08T20:34:23.883Z,29.40
2018-06-08T20:36:52.102Z,29.30
2018-06-08T20:39:20.217Z,29.30
2018-06-08T20:41:48.355Z,29.20
2018-06-08T20:44:16.486Z,29.20
2018-06-08T20:46:45.397Z,29.10
2018-06-08T20:49:13.586Z,29.10
2018-06-08T20:51:41.679Z,29.00
2018-06-08T20:54:09.812Z,29.00
2018-06-08T20:56:37.925Z,28.90
2018-06-08T20:59:07.035Z,28.80
2018-06-08T21:01:35.140Z,28.70
2018-06-08T21:04:03.244Z,28.60
2018-06-08T21:06:31.348Z,28.60
2018-06-08T21:11:27.418Z,28.50
2018-06-08T21:13:55.587Z,28.50
2018-06-08T21:16:23.692Z,28.50
2018-06-08T21:18:51.842Z,28.40
2018-06-08T21:21:19.954Z,28.40
2018-06-08T21:23:48.072Z,28.40
2018-06-08T21:26:16.147Z,28.40
2018-06-08T21:28:44.299Z,28.40
2018-06-08T21:31:12.381Z,28.40
2018-06-08T21:33:40.480Z,28.40
2018-06-08T21:36:08.591Z,28.40
2018-06-08T21:38:36.708Z,28.30
2018-06-08T21:41:04.812Z,28.30
2018-06-08T21:46:00.820Z,28.30
2018-06-08T21:48:28.922Z,28.30
2018-06-08T21:50:57.016Z,28.30
2018-06-08T21:53:25.111Z,28.30
2018-06-08T21:55:53.216Z,28.20
2018-06-08T21:58:21.321Z,28.20
2018-06-08T22:00:49.425Z,28.20
2018-06-08T22:03:17.516Z,28.20
2018-06-08T22:05:45.619Z,28.20
2018-06-08T22:08:13.688Z,28.10
2018-06-08T22:10:41.783Z,28.10
2018-06-08T22:13:09.883Z,28.10
2018-06-08T22:15:37.992Z,28.10
2018-06-08T22:18:06.089Z,28.10
2018-06-08T22:20:34.179Z,28.00
2018-06-08T22:23:02.261Z,27.90
2018-06-08T22:25:30.373Z,27.80
2018-06-08T22:27:58.482Z,27.80
2018-06-08T22:30:26.568Z,27.80
2018-06-08T22:32:54.671Z,27.70
2018-06-08T22:35:22.803Z,27.70
2018-06-08T22:37:50.900Z,27.70
2018-06-08T22:40:19.000Z,27.70
2018-06-08T22:42:47.148Z,27.60
2018-06-08T22:45:15.269Z,27.60
2018-06-08T22:47:43.367Z,27.60
2018-06-08T22:50:11.467Z,27.60
2018-06-08T22:52:39.533Z,27.60
2018-06-08T22:57:35.514Z,27.50
2018-06-08T23:00:03.635Z,27.40
2018-06-08T23:02:31.740Z,27.40
2018-06-08T23:04:59.840Z,27.30
2018-06-08T23:07:27.919Z,27.30
2018-06-08T23:09:56.019Z,27.20
2018-06-08T23:12:24.116Z,27.20
2018-06-08T23:14:52.220Z,27.20
2018-06-08T23:17:20.289Z,27.10
2018-06-08T23:19:49.012Z,27.10
2018-06-08T23:27:12.906Z,27.00
2018-06-08T23:29:41.018Z,26.90
2018-06-08T23:32:09.132Z,26.80
2018-06-08T23:34:37.244Z,26.80
2018-06-08T23:37:05.340Z,26.70
2018-06-08T23:39:33.435Z,26.70
2018-06-08T23:42:01.537Z,26.60
2018-06-08T23:44:29.644Z,26.60
2018-06-08T23:46:57.743Z,26.60
2018-06-08T23:49:25.857Z,26.50
2018-06-08T23:54:21.929Z,26.40
2018-06-08T23:56:50.015Z,26.40
2018-06-08T23:59:18.107Z,26.40
